• Join FlightAware (Why Join?)
  • Login
  • US Flag 
08:32AM EDT


 

Airport Tracker/Info


-or-


 

Live Flight TrackerFlight Track Log ✈ SWA1718 ✈ 16-Apr-2013 ✈ KDEN - KMDW

Flight Track Log - Related Links

Times and Time Zones

All times are in EDT time to prevent confusion due to time zone crossing. See the SWA1718 flight status page for this flight to view local times or setup timezone preferences in your user account.

Time Position Orientation Groundspeed Altitude Reporting Facility
EDT Latitude Longitude Course Direction KTS MPH feet Rate Location/Type
06:53PM 39.8833 -104.4667 90° East 252 290 9,300  Level Denver TRACON
06:54PM 39.8742 -104.4056 101° East 274 315 10,700 1,980 Climbing Denver Center
06:55PM 39.8739 -104.2961 90° East 302 348 12,700 1,980 Climbing Denver Center
06:56PM 39.8728 -104.1675 91° East 330 380 14,800 1,260 Climbing Denver Center
06:57PM 39.8667 -103.8978 90° East  Level FlightAware Approximate
06:57PM 39.8717 -104.0364 91° East 367 422 15,400  Level Denver Center
06:58PM 39.8708 -103.8858 90° East 413 475 17,000 1,440 Climbing Denver Center
06:59PM 39.8825 -103.7258 85° East 440 506 18,400 1,560 Climbing Denver Center
07:00PM 39.9025 -103.5647 81° East 446 513 20,200 1,560 Climbing Denver Center
07:01PM 39.9211 -103.3967 82° East 462 532 21,600 1,080 Climbing Denver Center
07:02PM 39.9408 -103.2231 82° East 478 550 22,500 1,200 Climbing Denver Center
07:03PM 39.9628 -103.0133 82° East 495 570 24,100 1,320 Climbing Denver Center
07:04PM 39.9836 -102.8333 81° East 498 573 25,300 1,140 Climbing Denver Center
07:05PM 40.0036 -102.6519 82° East 503 579 26,500 1,080 Climbing Denver Center
07:06PM 40.0208 -102.4781 83° East 505 581 27,600 1,260 Climbing Denver Center
07:07PM 40.0422 -102.2750 82° East 505 581 29,200 1,320 Climbing Denver Center
07:08PM 40.0586 -102.1044 83° East 498 573 30,400 1,020 Climbing Denver Center
07:09PM 40.0783 -101.9050 83° East 499 574 31,400 960 Climbing Denver Center
07:10PM 40.0964 -101.7369 82° East 491 565 32,400 840 Climbing Denver Center
07:11PM 40.1147 -101.5383 83° East 497 572 33,200 660 Climbing Denver Center
07:12PM 40.1325 -101.3697 82° East 493 567 33,800 600 Climbing Denver Center
07:13PM 40.1483 -101.2000 83° East 494 568 34,500 540 Climbing Denver Center
07:14PM 40.1678 -101.0033 83° East 492 566 35,000 240 Climbing Denver Center
07:15PM 40.1833 -100.8292 83° East 503 579 35,000  Level Denver Center
07:16PM 40.2006 -100.6272 84° East 504 580 35,000  Level Denver Center
07:17PM 40.2161 -100.4575 83° East 497 572 35,000  Level Denver Center
07:18PM 40.2328 -100.2586 84° East 495 570 35,000  Level Denver Center
07:19PM 40.2475 -100.0878 84° East 497 572 35,000  Level Denver Center
07:20PM 40.2633 -99.8839 84° East 505 581 35,000  Level Denver Center
07:21PM 40.2775 -99.7197 83° East 495 570 35,000  Level Denver Center
07:22PM 40.2914 -99.5383 84° East 500 575 35,000  Level Denver Center
07:23PM 40.3089 -99.3231 84° East 498 573 35,000  Level Denver Center
07:24PM 40.3225 -99.1447 84° East 496 571 35,000  Level Denver Center
07:25PM 40.3356 -98.9667 84° East 493 567 35,000  Level Denver Center
07:26PM 40.3461 -98.8256 84° East 495 570 35,000  Level Minneapolis Center
07:27PM 40.3586 -98.6478 85° East 493 567 35,000  Level Minneapolis Center
07:28PM 40.3711 -98.4694 85° East 493 567 35,000  Level Minneapolis Center
07:29PM 40.3864 -98.2578 85° East 490 564 35,000  Level Minneapolis Center
07:30PM 40.3978 -98.0806 85° East 490 564 35,000  Level Minneapolis Center
07:31PM 40.4092 -97.9042 85° East 489 563 35,000  Level Minneapolis Center
07:32PM 40.4203 -97.7281 85° East 487 560 35,000  Level Minneapolis Center
07:34PM 40.4314 -97.5517 85° East 486 559 35,000  Level Minneapolis Center
07:35PM 40.4422 -97.3756 85° East 486 559 35,000  Level Minneapolis Center
07:36PM 40.4528 -97.1944 86° East 485 558 35,000  Level Minneapolis Center
07:37PM 40.4636 -97.0189 85° East 484 557 35,000  Level Minneapolis Center
07:38PM 40.4725 -96.8431 86° East 485 558 35,000  Level Minneapolis Center
07:39PM 40.4844 -96.6319 86° East 485 558 35,000  Level Minneapolis Center
07:40PM 40.4936 -96.4572 86° East 483 556 35,000  Level Minneapolis Center
07:41PM 40.5019 -96.2831 86° East 483 556 35,000  Level Minneapolis Center
07:42PM 40.5114 -96.1064 86° East 485 558 35,000  Level Minneapolis Center
07:43PM 40.5203 -95.9319 86° East 484 557 35,000  Level Minneapolis Center
07:44PM 40.5278 -95.7550 87° East 485 558 35,000  Level Minneapolis Center
07:45PM 40.5375 -95.5456 86° East 482 555 35,000  Level Minneapolis Center
07:46PM 40.5458 -95.3706 86° East 482 555 35,000  Level Minneapolis Center
07:47PM 40.5522 -95.1931 87° East 485 558 35,000  Level Minneapolis Center
07:48PM 40.5603 -95.0161 87° East 486 559 35,000  Level Minneapolis Center
07:49PM 40.5672 -94.8397 87° East 485 558 35,000  Level Minneapolis Center
07:50PM 40.5736 -94.6622 87° East 486 559 35,000  Level Minneapolis Center
07:51PM 40.5800 -94.4819 87° East 486 559 35,000  Level Minneapolis Center
07:52PM 40.5858 -94.3047 87° East 487 560 35,000  Level Minneapolis Center
07:53PM 40.5900 -94.0919 88° East 488 562 35,000  Level Minneapolis Center
07:54PM 40.5994 -93.9150 86° East 488 562 35,000  Level Minneapolis Center
07:55PM 40.6267 -93.7392 78° East 488 562 35,000  Level Minneapolis Center
07:56PM 40.6544 -93.5628 78° East 490 564 35,000  Level Minneapolis Center
07:57PM 40.6800 -93.3864 79° East 492 566 35,000  Level Minneapolis Center
07:58PM 40.7061 -93.2094 79° East 492 566 35,000  Level Minneapolis Center
07:59PM 40.7311 -93.0306 79° East 495 570 35,000  Level Minneapolis Center
08:00PM 40.7619 -92.8153 79° East 497 572 35,000  Level Minneapolis Center
08:00PM 40.7667 -92.7789 80° East 497 572 35,000  Level Chicago Center
08:02PM 40.7917 -92.6003 79° East 496 571 35,000 -180 Level Chicago Center
08:03PM 40.8156 -92.4206 80° East 497 572 34,700 -660 Descending Chicago Center
08:04PM 40.8400 -92.2408 80° East 498 573 33,700 -1,020 Descending Chicago Center
08:05PM 40.8633 -92.0622 80° East 495 570 32,700 -1,020 Descending Chicago Center
08:06PM 40.8917 -91.8464 80° East 498 573 31,700 -960 Descending Chicago Center
08:07PM 40.9147 -91.6622 81° East 508 585 30,800 -900 Descending Chicago Center
08:08PM 40.9378 -91.4778 81° East 511 588 29,900 -1,020 Descending Chicago Center
08:09PM 40.9622 -91.2850 80° East 511 588 28,700 -1,200 Descending Chicago Center
08:10PM 40.9842 -91.1081 81° East 492 566 27,500 -1,140 Descending Chicago Center
08:11PM 41.0053 -90.9422 80° East 462 532 26,400 -1,140 Descending Chicago Center
08:12PM 41.0244 -90.7778 81° East 453 521 25,200 -1,260 Descending Chicago Center
08:13PM 41.0436 -90.6200 81° East 437 503 23,900 -1,260 Descending Chicago Center
08:14PM 41.0042 -90.4572 108° East 396 456 22,600 -1,140 Descending Chicago Center
08:15PM 40.9558 -90.3247 116° Southeast 399 459 21,600 -1,020 Descending Chicago Center
08:16PM 40.9067 -90.1881 115° Southeast 401 461 20,500 -1,020 Descending Chicago Center
08:17PM 40.8594 -90.0578 116° Southeast 396 456 19,500 -1,020 Descending Chicago Center
08:18PM 40.8122 -89.9342 117° Southeast 386 444 18,400 -960 Descending Chicago Center
08:19PM 40.7839 -89.8114 107° East 365 420 17,600 -1,020 Descending Chicago Center
08:20PM 40.7536 -89.6636 105° East 351 404 16,400 -1,080 Descending Chicago Center
08:21PM 40.7356 -89.5383 101° East 359 413 15,500 -780 Descending Chicago Center
08:22PM 40.7867 -89.4419 55° Northeast 362 417 14,900 -300 Descending Chicago Center
08:23PM 40.8544 -89.3000 58° Northeast 380 437 14,900 -540 Level Chicago Center
08:24PM 40.9133 -89.1822 56° Northeast 384 442 13,800 -1,500 Descending Chicago Center
08:25PM 40.9869 -89.0872 44° Northeast 372 428 11,900 -1,920 Descending Chicago Center
08:26PM 41.0639 -88.9819 46° Northeast 364 419 9,900 -1,020 Descending Chicago Center
08:27PM 41.1303 -88.8925 45° Northeast 347 399 9,900  Level Chicago Center
08:28PM 41.1975 -88.8006 46° Northeast 346 398 9,900 -780 Level Chicago Center
08:29PM 41.2583 -88.7172 46° Northeast 323 372 8,300 -1,560 Descending Chicago Center
08:30PM 41.3175 -88.6350 46° Northeast 312 359 6,800 -1,140 Descending Chicago Center
08:31PM 41.3747 -88.5556 46° Northeast 302 348 6,000 -420 Descending Chicago Center
08:32PM 41.4136 -88.4503 64° Northeast 278 320 6,000  Level Chicago Center
08:34PM 41.4294 -88.3478 78° East 282 325 6,000 -840 Level Chicago Center
08:35PM 41.4564 -88.2508 70° East 280 322 4,300 -1,020 Descending Chicago Center
08:36PM 41.4822 -88.1594 69° East 267 307 4,000 -180 Descending Chicago Center
08:37PM 41.5231 -88.0853 54° Northeast 256 295 4,000  Level Chicago Center
08:38PM 41.5628 -88.0272 48° Northeast 229 264 4,000 -120 Level Chicago Center
08:39PM 41.6083 -87.9761 40° Northeast 218 251 3,800 -540 Descending Chicago Center
08:40PM 41.6586 -87.9117 44° Northeast 213 245 3,000 -420 Descending Chicago Center
08:41PM 41.6833 -87.8667 54° Northeast 160 184 3,000 -420 Level Chicago TRACON
08:42PM 41.7167 -87.8333 37° Northeast 148 170 2,200 -720 Descending Chicago TRACON
08:43PM 41.7500 -87.8000 37° Northeast 114 131 1,600 -660 Descending Chicago TRACON
08:44PM 41.7667 -87.7667 56° Northeast 124 143 900 -720 Descending Chicago TRACON
08:46PM 41.7833 -87.7500 51° Northeast  Level FlightAware Approximate